Airport View

Enter AWOS ICAO identifier for current METAR.

ex. KFNL

KAND 261056Z AUTO 00000KT 10SM CLR 19/17 A3016 RMK AO2 SLP204 T01940172

26 Jun 2019 11:56

Frequency: 120.675

Phone: 864-226-9522

Other Area AWOS: KCEU - KLQK - K18A - KGYH

TAF KAND 260542Z 2606/2706 VRB03KT P6SM SCT250 FM261700 05005KT P6SM SCT250 FM262200 VRB03KT P6SM SCT200